• Join FlightAware (Why Join?)
  • Login
  • US Flag 
01:50PM EDT


 

Airport Tracker/Info


-or-


 

Live Flight TrackerFlight Track Log ✈ SWA558 ✈ 21-Apr-2013 ✈ KRSW - KMDW

Flight Track Log - Related Links

Times and Time Zones

All times are in EDT time to prevent confusion due to time zone crossing. See the SWA558 flight status page for this flight to view local times or setup timezone preferences in your user account.

Time Position Orientation Groundspeed Altitude Reporting Facility
EDT Latitude Longitude Course Direction KTS MPH feet Rate Location/Type
12:19PM 26.6331 -81.6947 347° North 249 287 5,700  Level Miami Center
12:20PM 26.7100 -81.7072 352° North 269 310 9,400 3,000 Climbing Miami Center
12:21PM 26.7972 -81.7156 355° North 290 334 11,800 2,760 Climbing Miami Center
12:22PM 26.8969 -81.7314 352° North 326 375 15,000 3,000 Climbing Miami Center
12:23PM 27.0827 -81.7598 340° North  Level FlightAware Approximate
12:23PM 27.0008 -81.7428 354° North 358 412 17,800  Level Miami Center
12:24PM 27.1885 -81.7971 347° North  Level FlightAware Approximate
12:24PM 27.1083 -81.7728 346° North 392 451 20,600  Level Miami Center
12:25PM 27.2158 -81.8078 344° North 397 457 21,000 180 Climbing Miami Center
12:26PM 27.3314 -81.8453 344° North 397 457 21,000  Level Miami Center
12:27PM 27.4303 -81.8800 343° North 377 434 21,000 720 Level Miami Center
12:28PM 27.5375 -81.9200 342° North 367 422 22,500 960 Climbing Miami Center
12:29PM 27.6383 -81.9572 342° North 367 422 23,000 300 Climbing Miami Center
12:30PM 27.7394 -81.9944 342° North 383 441 23,100 720 Climbing Miami Center
12:32PM 27.9383 -82.0139 355° North 408 470 25,000 1,140 Climbing Jacksonville Center
12:33PM 28.0533 -82.0531 343° North 420 483 26,300 1,680 Climbing Jacksonville Center
12:34PM 28.1581 -82.1228 330° Northwest 431 496 28,400 2,220 Climbing Jacksonville Center
12:35PM 28.2731 -82.1642 342° North 436 502 30,800 1,800 Climbing Jacksonville Center
12:36PM 28.3881 -82.1964 346° North 430 495 32,000 600 Climbing Jacksonville Center
12:37PM 28.5111 -82.1956 360° North 421 484 32,000 900 Level Jacksonville Center
12:38PM 28.6322 -82.1972 359° North 428 493 33,900 1,200 Climbing Jacksonville Center
12:39PM 28.7450 -82.2225 349° North 421 484 34,400 1,140 Climbing Jacksonville Center
12:40PM 28.8536 -82.2572 344° North 403 464 36,200 1,500 Climbing Jacksonville Center
12:41PM 28.9561 -82.2922 343° North 398 458 37,400 840 Climbing Jacksonville Center
12:42PM 29.0503 -82.3200 346° North 387 445 37,900 300 Climbing Jacksonville Center
12:43PM 29.1589 -82.3553 344° North 387 445 38,000  Climbing Jacksonville Center
12:44PM 29.2633 -82.3881 345° North 387 445 37,900 -60 Descending Jacksonville Center
12:45PM 29.3700 -82.4231 344° North 387 445 37,900  Level Jacksonville Center
12:46PM 29.4767 -82.4583 344° North 392 451 38,000  Climbing Jacksonville Center
12:47PM 29.5853 -82.4936 344° North 397 457 37,900  Descending Jacksonville Center
12:48PM 29.6919 -82.5267 345° North 397 457 38,000  Climbing Jacksonville Center
12:49PM 29.8006 -82.5647 343° North 402 463 38,000  Level Jacksonville Center
12:50PM 29.9092 -82.5978 345° North 402 463 38,000  Level Jacksonville Center
12:51PM 30.0178 -82.6336 344° North 402 463 38,000  Level Jacksonville Center
12:52PM 30.1306 -82.6717 344° North 402 463 38,000  Level Jacksonville Center
12:53PM 30.2392 -82.7097 343° North 402 463 38,000  Level Jacksonville Center
12:54PM 30.3519 -82.7481 344° North 409 471 38,000  Level Jacksonville Center
12:55PM 30.4647 -82.7842 345° North 409 471 38,000  Level Jacksonville Center
12:56PM 30.5733 -82.8250 342° North 414 476 38,000  Level Jacksonville Center
12:57PM 30.6861 -82.8636 344° North 414 476 38,000  Level Jacksonville Center
12:58PM 30.7989 -82.8997 345° North 419 482 38,000  Level Jacksonville Center
12:59PM 30.9075 -82.9361 344° North 419 482 38,000  Level Jacksonville Center
01:00PM 31.0203 -82.9700 346° North 419 482 38,000  Level Jacksonville Center
01:01PM 31.1308 -83.0067 344° North 414 476 38,000  Level Jacksonville Center
01:02PM 31.2394 -83.0408 345° North 419 482 38,000  Level Jacksonville Center
01:03PM 31.3481 -83.0800 343° North 406 467 38,000  Level Jacksonville Center
01:04PM 31.5306 -83.1472 343° North 403 464 38,000  Level Atlanta Center
01:05PM 31.6414 -83.1850 344° North 403 464 38,000  Level Atlanta Center
01:06PM 31.7503 -83.2208 344° North 403 464 38,000  Level Atlanta Center
01:07PM 31.8631 -83.2589 344° North 403 464 38,000  Level Atlanta Center
01:08PM 31.9739 -83.2969 344° North 403 464 38,000  Level Atlanta Center
01:09PM 32.0847 -83.3353 344° North 403 464 38,000  Level Atlanta Center
01:10PM 32.1956 -83.3761 343° North 408 470 38,000  Level Atlanta Center
01:11PM 32.3064 -83.4122 345° North 408 470 38,000  Level Atlanta Center
01:12PM 32.4194 -83.4508 344° North 408 470 38,000  Level Atlanta Center
01:13PM 32.5303 -83.4919 343° North 408 470 38,000  Level Atlanta Center
01:14PM 32.6453 -83.5306 344° North 418 481 38,000  Level Atlanta Center
01:15PM 32.7581 -83.5744 342° North 418 481 38,000  Level Atlanta Center
01:16PM 32.8708 -83.6108 345° North 418 481 38,000  Level Atlanta Center
01:17PM 32.9858 -83.6525 343° North 418 481 38,000  Level Atlanta Center
01:18PM 33.0986 -83.6917 344° North 418 481 38,000  Level Atlanta Center
01:19PM 33.2114 -83.7308 344° North 418 481 38,000  Level Atlanta Center
01:20PM 33.3139 -83.7653 344° North 423 487 38,000  Level Atlanta Center
01:21PM 33.4308 -83.8072 343° North 423 487 38,000  Level Atlanta Center
01:22PM 33.5436 -83.8469 344° North 423 487 38,000  Level Atlanta Center
01:23PM 33.6606 -83.8892 343° North 423 487 38,000  Level Atlanta Center
01:24PM 33.7775 -83.9314 343° North 428 493 38,000  Level Atlanta Center
01:25PM 33.8922 -83.9736 343° North 428 493 38,000  Level Atlanta Center
01:26PM 34.0092 -84.0161 343° North 433 498 38,000  Level Atlanta Center
01:27PM 34.1303 -84.0564 345° North 439 505 38,000  Level Atlanta Center
01:28PM 34.2514 -84.1017 343° North 439 505 38,000  Level Atlanta Center
01:29PM 34.3703 -84.1469 343° North 439 505 38,000  Level Atlanta Center
01:30PM 34.4892 -84.1900 343° North 439 505 38,000  Level Atlanta Center
01:31PM 34.6103 -84.2331 344° North 439 505 38,000  Level Atlanta Center
01:32PM 34.7394 -84.2814 343° North 439 505 38,000  Level Atlanta Center
01:33PM 34.8625 -84.3275 343° North 450 518 38,000  Level Atlanta Center
01:34PM 34.9667 -84.3683 342° North 450 518 38,000  Level Atlanta Center
01:35PM 35.0897 -84.4119 344° North 450 518 38,000  Level Atlanta Center
01:36PM 35.2086 -84.4581 342° North 445 512 38,000  Level Atlanta Center
01:37PM 35.3294 -84.5019 343° North 445 512 38,000  Level Atlanta Center
01:38PM 35.4503 -84.5486 343° North 445 512 38,000  Level Atlanta Center
01:39PM 35.5731 -84.5953 343° North 450 518 38,000  Level Atlanta Center
01:40PM 35.6958 -84.6397 344° North 450 518 38,000  Level Atlanta Center
01:41PM 35.8292 -84.6867 344° North 450 518 38,000  Level Atlanta Center
01:44PM 36.0956 -84.7903 343° North 457 526 38,000  Level Indianapolis Center
01:45PM 36.2156 -84.8358 343° North 453 521 38,000  Level Indianapolis Center
01:46PM 36.3350 -84.8819 343° North 452 520 38,000  Level Indianapolis Center
01:47PM 36.4781 -84.9369 343° North 450 518 38,000  Level Indianapolis Center
01:48PM 36.5956 -84.9828 343° North 445 512 38,000  Level Indianapolis Center
01:49PM 36.7142 -85.0283 343° North 446 513 38,000  Level Indianapolis Center
01:50PM 36.8375 -85.0592 349° North 453 521 38,000  Level Indianapolis Center
01:51PM 36.9617 -85.0914 348° North 453 521 38,000  Level Indianapolis Center
01:52PM 37.0981 -85.1256 349° North 454 522 38,000  Level Indianapolis Center
01:53PM 37.2231 -85.1569 349° North 455 524 38,000  Level Indianapolis Center
01:54PM 37.3472 -85.1914 348° North 455 524 38,000  Level Indianapolis Center
01:55PM 37.4719 -85.2242 348° North 455 524 38,000  Level Indianapolis Center
01:56PM 37.5972 -85.2553 349° North 456 525 38,000  Level Indianapolis Center
01:57PM 37.7194 -85.2903 347° North 450 518 38,000  Level Indianapolis Center
01:58PM 37.8478 -85.3222 349° North 459 528 38,000  Level Indianapolis Center
01:59PM 37.9717 -85.3536 349° North 452 520 38,000  Level Indianapolis Center
02:00PM 38.1172 -85.3933 348° North 445 512 38,000  Level Indianapolis Center
02:01PM 38.2406 -85.4261 348° North 451 519 38,000 -120 Level Indianapolis Center
02:02PM 38.3628 -85.4572 349° North 448 516 37,800 -1,380 Descending Indianapolis Center
02:03PM 38.4836 -85.4906 348° North 445 512 35,200 -1,380 Descending Indianapolis Center
02:04PM 38.6078 -85.5242 348° North 453 521 35,000 -120 Descending Indianapolis Center
02:05PM 38.7336 -85.5581 348° North 460 529 35,000  Level Indianapolis Center
02:06PM 38.8572 -85.5908 348° North 454 522 35,000  Level Indianapolis Center
02:07PM 38.9833 -85.6261 348° North 460 529 35,000 -1,560 Level Indianapolis Center
02:08PM 39.1308 -85.6664 348° North 453 521 31,800 -2,460 Descending Indianapolis Center
02:09PM 39.2519 -85.6997 348° North 447 514 30,000 -900 Descending Indianapolis Center
02:10PM 39.3714 -85.7322 348° North 439 505 30,000 -180 Level Indianapolis Center
02:11PM 39.4925 -85.7658 348° North 442 509 29,700 -660 Descending Indianapolis Center
02:12PM 39.6128 -85.8000 348° North 443 510 28,700 -1,080 Descending Indianapolis Center
02:14PM 39.7458 -85.8369 348° North 432 497 27,500 -1,080 Descending Indianapolis Center
02:15PM 39.8614 -85.8692 348° North 424 488 26,500 -1,020 Descending Indianapolis Center
02:16PM 39.9725 -85.9006 348° North 410 472 25,400 -1,080 Descending Indianapolis Center
02:17PM 40.0842 -85.9311 348° North 406 467 24,400 -720 Descending Indianapolis Center
02:18PM 40.1872 -85.9611 347° North 401 461 24,000 -240 Descending Chicago Center
02:19PM 40.2944 -85.9919 348° North 396 456 24,000  Level Chicago Center
02:20PM 40.4014 -86.0222 348° North 395 455 24,000 -240 Level Chicago Center
02:21PM 40.5086 -86.0517 348° North 394 453 23,600 -720 Descending Chicago Center
02:22PM 40.6189 -86.0558 358° North 396 456 22,600 -1,140 Descending Chicago Center
02:23PM 40.7278 -86.0531 North 393 452 21,300 -1,740 Descending Chicago Center
02:24PM 40.8539 -86.0503 North 380 437 19,100 -1,860 Descending Chicago Center
02:25PM 40.9500 -86.0675 352° North 378 435 17,500 -1,860 Descending Chicago Center
02:26PM 40.9903 -86.1792 296° West 341 392 15,300 -1,560 Descending Chicago Center
02:27PM 41.0394 -86.2833 302° West 335 386 14,300 -1,020 Descending Chicago Center
02:28PM 41.0922 -86.3789 306° West 324 373 13,300 -1,020 Descending Chicago Center
02:29PM 41.1442 -86.4747 306° West 320 368 12,300 -1,020 Descending Chicago Center
02:30PM 41.1958 -86.5689 306° West 316 364 11,300 -1,080 Descending Chicago Center
02:31PM 41.2564 -86.6797 306° West 308 354 10,100 -600 Descending Chicago Center
02:32PM 41.3025 -86.7636 306° West 304 350 10,100 -60 Level Chicago Center
02:33PM 41.3519 -86.8550 306° West 306 352 10,000 -720 Descending Chicago Center
02:34PM 41.4056 -86.9544 306° West 279 321 8,700 -1,140 Descending Chicago Center
02:35PM 41.4494 -87.0347 306° West 272 313 7,700 -1,020 Descending Chicago Center
02:36PM 41.4922 -87.1142 306° West 269 310 6,600 -1,140 Descending Chicago Center
02:37PM 41.5167 -87.1500 312° West 259 298 6,100 -1,080 Descending Chicago TRACON
02:38PM 41.5167 -87.2667 270° West 265 305 5,000 -600 Descending Chicago TRACON
02:39PM 41.5167 -87.3333 270° West 261 300 4,900 -660 Descending Chicago TRACON
02:39PM 41.5131 -87.4122 267° West 260 299 4,000 -540 Descending Chicago Center
02:40PM 41.5117 -87.5089 269° West 261 300 4,000  Level Chicago Center
02:41PM 41.5158 -87.6044 273° West 262 302 4,000  Level Chicago Center
02:42PM 41.5400 -87.6981 289° West 269 310 4,000 -300 Level Chicago Center
02:43PM 41.5644 -87.7856 290° West 263 303 3,500 -780 Descending Chicago Center
02:44PM 41.6017 -87.8811 298° West 253 291 2,500 -480 Descending Chicago Center
02:45PM 41.6544 -87.8997 345° North 249 287 2,500  Level Chicago Center
02:46PM 41.7033 -87.8575 33° Northeast 225 259 2,500 -240 Level Chicago Center
02:48PM 41.7500 -87.8333 21° North 180 207 2,000 -360 Descending Chicago TRACON
02:48PM 41.8000 -87.8167 14° North 168 193 1,800 -480 Descending Chicago TRACON
02:49PM 41.8000 -87.7833 90° East 132 152 1,200 -600 Descending Chicago TRACON